createdAt,value
2023-02-18T00:01:02.617Z,12.24
2023-02-18T00:03:30.002Z,12.14
2023-02-18T00:05:57.092Z,12.07
2023-02-18T00:08:23.899Z,11.99
2023-02-18T00:10:50.472Z,11.92
2023-02-18T00:13:17.039Z,11.87
2023-02-18T00:15:43.432Z,11.80
2023-02-18T00:18:09.977Z,11.75
2023-02-18T00:20:39.422Z,11.71
2023-02-18T00:23:05.823Z,11.68
2023-02-18T00:25:32.249Z,11.67
2023-02-18T00:27:58.639Z,11.66
2023-02-18T00:30:25.056Z,11.64
2023-02-18T00:32:51.498Z,11.62
2023-02-18T00:35:17.889Z,11.61
2023-02-18T00:37:44.350Z,11.60
2023-02-18T00:40:11.185Z,11.64
2023-02-18T00:42:37.551Z,11.67
2023-02-18T00:45:07.549Z,11.73
2023-02-18T00:47:33.971Z,11.81
2023-02-18T00:50:00.367Z,11.91
2023-02-18T00:52:26.785Z,11.99
2023-02-18T00:54:53.222Z,12.09
2023-02-18T00:57:19.648Z,12.17
2023-02-18T00:59:46.195Z,12.17
2023-02-18T01:02:12.742Z,12.22
2023-02-18T01:04:39.318Z,12.25
2023-02-18T01:07:05.863Z,12.30
2023-02-18T01:09:32.319Z,12.34
2023-02-18T01:11:58.713Z,12.39
2023-02-18T01:14:25.320Z,12.47
2023-02-18T01:16:51.931Z,12.50
2023-02-18T01:19:18.380Z,12.55
2023-02-18T01:21:44.776Z,12.59
2023-02-18T01:24:11.263Z,12.64
2023-02-18T01:26:39.873Z,12.67
2023-02-18T01:29:06.452Z,12.71
2023-02-18T01:31:33.182Z,12.73
2023-02-18T01:33:59.658Z,12.73
2023-02-18T01:36:26.593Z,12.75
2023-02-18T01:38:53.697Z,12.74
2023-02-18T01:41:20.566Z,12.75
2023-02-18T01:43:47.263Z,12.75
2023-02-18T01:46:17.796Z,12.76
2023-02-18T01:48:46.948Z,12.81
2023-02-18T01:51:30.225Z,12.81
2023-02-18T01:54:09.064Z,12.85
2023-02-18T01:56:44.047Z,12.90
2023-02-18T01:59:16.536Z,12.93
2023-02-18T02:01:45.532Z,12.96
2023-02-18T02:04:12.664Z,12.97
2023-02-18T02:06:39.297Z,13.00
2023-02-18T02:09:10.131Z,13.02
2023-02-18T02:12:13.442Z,13.03
2023-02-18T02:15:05.857Z,12.99
2023-02-18T02:18:10.614Z,12.95
2023-02-18T02:21:07.543Z,12.96
2023-02-18T02:23:40.019Z,12.96
2023-02-18T02:26:39.858Z,12.87
2023-02-18T02:32:32.103Z,12.84
2023-02-18T02:35:11.059Z,12.78
2023-02-18T02:37:44.733Z,12.74
2023-02-18T02:40:45.751Z,12.73
2023-02-18T02:43:36.411Z,12.73
2023-02-18T02:46:09.834Z,12.72
2023-02-18T02:49:03.773Z,12.71
2023-02-18T02:51:37.918Z,12.71
2023-02-18T02:54:13.922Z,12.67
2023-02-18T02:56:40.483Z,12.66
2023-02-18T02:59:16.572Z,12.71
2023-02-18T03:02:11.443Z,12.72
2023-02-18T03:04:59.924Z,12.73
2023-02-18T03:07:47.689Z,12.74
2023-02-18T03:10:40.841Z,12.79
2023-02-18T03:13:22.839Z,12.79
2023-02-18T03:15:59.337Z,12.86
2023-02-18T03:18:51.644Z,12.86
2023-02-18T03:21:30.167Z,12.96
2023-02-18T03:24:02.204Z,13.02
2023-02-18T03:26:31.742Z,13.08
2023-02-18T03:29:03.813Z,13.11
2023-02-18T03:31:34.680Z,13.13
2023-02-18T03:34:32.740Z,13.18
2023-02-18T03:37:01.102Z,13.15
2023-02-18T03:39:30.078Z,13.13
2023-02-18T03:41:56.727Z,13.20
2023-02-18T03:44:24.887Z,13.19
2023-02-18T03:46:52.269Z,13.19
2023-02-18T03:49:18.785Z,13.15
2023-02-18T03:51:45.232Z,13.11
2023-02-18T03:54:11.692Z,13.10
2023-02-18T03:56:38.096Z,13.11
2023-02-18T03:59:04.638Z,13.15
2023-02-18T04:01:31.904Z,13.18
2023-02-18T04:03:58.415Z,13.12
2023-02-18T04:06:24.975Z,13.14
2023-02-18T04:08:51.510Z,13.08
2023-02-18T04:11:18.229Z,13.07
2023-02-18T04:13:44.667Z,13.05
2023-02-18T04:16:11.189Z,13.07
2023-02-18T04:18:37.590Z,13.06
2023-02-18T04:21:04.346Z,13.03
2023-02-18T04:23:30.983Z,13.02
2023-02-18T04:25:57.788Z,12.97
2023-02-18T04:28:24.520Z,12.94
2023-02-18T04:30:51.003Z,12.93
2023-02-18T04:33:17.800Z,12.91
2023-02-18T04:35:44.510Z,12.94
2023-02-18T04:38:11.890Z,12.92
2023-02-18T04:40:38.519Z,12.96
2023-02-18T04:43:05.203Z,12.94
2023-02-18T04:45:31.616Z,12.92
2023-02-18T04:48:01.067Z,12.95
2023-02-18T04:50:27.960Z,12.98
2023-02-18T04:52:54.348Z,13.01
2023-02-18T04:55:20.831Z,13.01
2023-02-18T04:57:47.415Z,12.97
2023-02-18T05:00:19.510Z,13.00
2023-02-18T05:02:46.740Z,12.94
2023-02-18T05:05:14.955Z,12.97
2023-02-18T05:07:42.427Z,12.97
2023-02-18T05:10:11.134Z,12.94
2023-02-18T05:12:37.768Z,12.93
2023-02-18T05:15:05.307Z,12.94
2023-02-18T05:17:31.856Z,12.89
2023-02-18T05:19:58.441Z,12.85
2023-02-18T05:22:24.897Z,12.86
2023-02-18T05:24:54.293Z,12.88
2023-02-18T05:27:20.674Z,12.81
2023-02-18T05:29:47.327Z,12.81
2023-02-18T05:32:14.116Z,12.79
2023-02-18T05:34:41.013Z,12.85
2023-02-18T05:37:11.982Z,12.83
2023-02-18T05:39:38.716Z,12.81
2023-02-18T05:42:05.242Z,12.77
2023-02-18T05:44:31.935Z,12.77
2023-02-18T05:47:00.061Z,12.79
2023-02-18T05:49:27.266Z,12.76
2023-02-18T05:51:53.699Z,12.76
2023-02-18T05:54:20.555Z,12.71
2023-02-18T05:56:47.371Z,12.71
2023-02-18T05:59:14.016Z,12.71
2023-02-18T06:01:41.070Z,12.68
2023-02-18T06:04:08.051Z,12.68
2023-02-18T06:06:35.095Z,12.66
2023-02-18T06:09:02.009Z,12.65
2023-02-18T06:11:28.722Z,12.59
2023-02-18T06:13:55.135Z,12.56
2023-02-18T06:16:21.675Z,12.55
2023-02-18T06:18:48.197Z,12.58
2023-02-18T06:21:14.748Z,12.51
2023-02-18T06:23:42.220Z,12.50
2023-02-18T06:26:09.330Z,12.50
2023-02-18T06:28:35.952Z,12.42
2023-02-18T06:31:02.561Z,12.41
2023-02-18T06:33:29.382Z,12.40
2023-02-18T06:36:11.954Z,12.39
2023-02-18T06:38:41.029Z,12.40
2023-02-18T06:41:08.681Z,12.36
2023-02-18T06:43:35.404Z,12.38
2023-02-18T06:46:02.292Z,12.41
2023-02-18T06:48:29.057Z,12.42
2023-02-18T06:50:55.468Z,12.49
2023-02-18T06:53:21.985Z,12.47
2023-02-18T06:55:48.461Z,12.51
2023-02-18T06:58:15.148Z,12.56
2023-02-18T07:00:41.902Z,12.58
2023-02-18T07:03:08.793Z,12.56
2023-02-18T07:05:35.277Z,12.56
2023-02-18T07:08:01.834Z,12.57
2023-02-18T07:10:28.262Z,12.57
2023-02-18T07:12:54.685Z,12.56
2023-02-18T07:15:24.223Z,12.60
2023-02-18T07:17:51.923Z,12.66
2023-02-18T07:20:19.502Z,12.65
2023-02-18T07:22:46.091Z,12.68
2023-02-18T07:25:12.876Z,12.71
2023-02-18T07:27:39.653Z,12.67
2023-02-18T07:30:07.109Z,12.66
2023-02-18T07:32:33.560Z,12.75
2023-02-18T07:34:59.946Z,12.75
2023-02-18T07:37:26.422Z,12.69
2023-02-18T07:39:52.838Z,12.72
2023-02-18T07:42:19.305Z,12.80
2023-02-18T07:44:45.900Z,12.86
2023-02-18T07:47:15.576Z,12.88
2023-02-18T07:49:42.108Z,12.87
2023-02-18T07:52:08.703Z,12.81
2023-02-18T07:54:35.350Z,12.90
2023-02-18T07:57:01.820Z,12.87
2023-02-18T07:59:28.239Z,12.86
2023-02-18T08:01:54.757Z,12.90
2023-02-18T08:04:21.353Z,12.97
2023-02-18T08:06:49.692Z,13.01
2023-02-18T08:09:17.607Z,12.99
2023-02-18T08:11:44.644Z,13.00
2023-02-18T08:14:11.252Z,13.01
2023-02-18T08:16:37.763Z,13.01
2023-02-18T08:19:04.433Z,13.03
2023-02-18T08:21:31.625Z,13.04
2023-02-18T08:23:58.861Z,13.01
2023-02-18T08:26:25.426Z,13.06
2023-02-18T08:28:51.929Z,13.09
2023-02-18T08:31:21.485Z,13.05
2023-02-18T08:33:48.866Z,13.13
2023-02-18T08:36:15.291Z,13.15
2023-02-18T08:38:41.795Z,13.15
2023-02-18T08:41:09.219Z,13.19
2023-02-18T08:43:36.508Z,13.14
2023-02-18T08:46:03.441Z,13.16
2023-02-18T08:48:30.425Z,13.20
2023-02-18T08:50:56.891Z,13.15
2023-02-18T08:53:23.768Z,13.12
2023-02-18T08:55:50.292Z,13.09
2023-02-18T08:58:17.343Z,13.08
2023-02-18T09:00:44.663Z,13.04
2023-02-18T09:03:13.693Z,13.11
2023-02-18T09:05:40.610Z,13.02
2023-02-18T09:08:07.124Z,13.08
2023-02-18T09:10:34.266Z,13.02
2023-02-18T09:13:00.671Z,13.00
2023-02-18T09:15:27.101Z,12.98
2023-02-18T09:17:53.549Z,12.89
2023-02-18T09:20:20.024Z,12.95
2023-02-18T09:22:46.427Z,12.84
2023-02-18T09:25:12.884Z,12.75
2023-02-18T09:27:39.273Z,12.78
2023-02-18T09:30:06.772Z,12.86
2023-02-18T09:32:35.197Z,12.85
2023-02-18T09:35:02.964Z,12.94
2023-02-18T09:37:29.492Z,12.97
2023-02-18T09:39:56.026Z,12.95
2023-02-18T09:42:30.366Z,12.92
2023-02-18T09:45:02.399Z,12.96
2023-02-18T09:47:37.486Z,12.97
2023-02-18T09:50:13.984Z,12.95
2023-02-18T09:52:40.448Z,13.03
2023-02-18T09:55:27.553Z,13.07
2023-02-18T09:58:11.920Z,13.04
2023-02-18T10:00:42.132Z,13.01
2023-02-18T10:03:15.334Z,12.85
2023-02-18T10:05:59.376Z,12.76
2023-02-18T10:08:33.987Z,12.79
2023-02-18T10:11:00.573Z,12.77
2023-02-18T10:13:33.073Z,12.78
2023-02-18T10:16:00.390Z,12.85
2023-02-18T10:18:33.813Z,12.90
2023-02-18T10:21:10.336Z,12.91
2023-02-18T10:23:40.558Z,12.99
2023-02-18T10:26:12.515Z,13.05
2023-02-18T10:28:39.192Z,13.04
2023-02-18T10:31:11.933Z,13.03
2023-02-18T10:33:48.016Z,13.00
2023-02-18T10:36:42.815Z,12.96
2023-02-18T10:39:32.775Z,12.92
2023-02-18T10:42:12.642Z,12.95
2023-02-18T10:45:23.988Z,12.89
2023-02-18T10:48:09.422Z,12.76
2023-02-18T10:50:40.519Z,12.84
2023-02-18T10:53:31.159Z,12.86
2023-02-18T10:56:00.304Z,12.93
2023-02-18T10:58:42.794Z,12.98
2023-02-18T11:01:22.239Z,12.95
2023-02-18T11:03:51.734Z,12.98
2023-02-18T11:06:34.131Z,13.04
2023-02-18T11:09:02.077Z,13.08
2023-02-18T11:11:36.409Z,13.13
2023-02-18T11:14:05.405Z,13.20
2023-02-18T11:16:53.585Z,13.24
2023-02-18T11:19:38.307Z,13.04
2023-02-18T11:22:28.547Z,13.21
2023-02-18T11:24:57.539Z,13.33
2023-02-18T11:27:26.363Z,13.46
2023-02-18T11:29:59.310Z,13.52
2023-02-18T11:32:28.699Z,13.54
2023-02-18T11:34:55.654Z,13.60
2023-02-18T11:37:23.068Z,13.61
2023-02-18T11:39:52.830Z,13.67
2023-02-18T11:42:22.704Z,13.65
2023-02-18T11:45:00.257Z,13.68
2023-02-18T11:47:35.024Z,13.47
2023-02-18T11:50:10.271Z,13.55
2023-02-18T11:52:42.534Z,13.37
2023-02-18T11:55:22.035Z,13.37
2023-02-18T11:57:58.856Z,13.35
2023-02-18T12:00:37.032Z,13.29
2023-02-18T12:03:18.145Z,13.31
2023-02-18T12:05:45.665Z,13.29
2023-02-18T12:08:23.921Z,13.35
2023-02-18T12:10:54.550Z,13.32
2023-02-18T12:13:31.303Z,13.21
2023-02-18T12:16:23.499Z,13.26
2023-02-18T12:19:10.281Z,13.24
2023-02-18T12:21:44.533Z,13.25
2023-02-18T12:24:25.893Z,13.22
2023-02-18T12:27:22.930Z,13.23
2023-02-18T12:30:01.350Z,13.24
2023-02-18T12:32:51.869Z,13.25
2023-02-18T12:35:46.048Z,13.25
2023-02-18T12:38:40.422Z,13.25
2023-02-18T12:41:34.483Z,13.19
2023-02-18T12:44:28.725Z,13.19
2023-02-18T12:47:32.213Z,13.16
2023-02-18T12:50:01.649Z,13.18
2023-02-18T12:52:51.832Z,13.13
2023-02-18T12:55:55.734Z,13.19
2023-02-18T12:58:34.271Z,13.05
2023-02-18T13:01:14.234Z,13.07
2023-02-18T13:04:05.433Z,13.09
2023-02-18T13:07:05.752Z,13.12
2023-02-18T13:09:47.376Z,13.04
2023-02-18T13:12:26.751Z,13.01
2023-02-18T13:15:05.108Z,12.99
2023-02-18T13:17:37.036Z,12.94
2023-02-18T13:20:13.998Z,12.93
2023-02-18T13:22:40.541Z,12.93
2023-02-18T13:25:13.435Z,12.90
2023-02-18T13:27:44.309Z,12.80
2023-02-18T13:30:31.684Z,12.82
2023-02-18T13:33:12.300Z,12.84
2023-02-18T13:35:48.907Z,12.83
2023-02-18T13:38:53.597Z,12.78
2023-02-18T13:41:20.923Z,12.76
2023-02-18T13:43:48.335Z,12.80
2023-02-18T13:46:18.979Z,12.83
2023-02-18T13:48:54.988Z,12.81
2023-02-18T13:51:31.553Z,12.81
2023-02-18T13:54:13.126Z,12.83
2023-02-18T13:56:58.086Z,12.84
2023-02-18T13:59:30.194Z,12.86
2023-02-18T14:02:27.819Z,12.85
2023-02-18T14:04:55.391Z,12.84
2023-02-18T14:07:24.869Z,12.86
2023-02-18T14:09:53.954Z,12.86
2023-02-18T14:12:23.451Z,12.86
2023-02-18T14:14:50.756Z,12.87
2023-02-18T14:17:19.919Z,12.86
2023-02-18T14:20:01.550Z,12.87
2023-02-18T14:22:28.335Z,12.84
2023-02-18T14:25:13.199Z,12.86
2023-02-18T14:27:41.361Z,12.83
2023-02-18T14:30:22.779Z,12.87
2023-02-18T14:32:52.744Z,12.92
2023-02-18T14:35:31.077Z,12.91
2023-02-18T14:38:06.924Z,12.97
2023-02-18T14:40:41.688Z,12.95
2023-02-18T14:43:30.512Z,12.92
2023-02-18T14:45:59.820Z,12.84
2023-02-18T14:49:03.731Z,12.93
2023-02-18T14:51:32.377Z,12.97
2023-02-18T14:54:06.207Z,12.95
2023-02-18T14:56:38.409Z,13.03
2023-02-18T14:59:05.922Z,13.04
2023-02-18T15:01:35.390Z,13.11
2023-02-18T15:04:03.655Z,13.12
2023-02-18T15:06:37.571Z,13.14
2023-02-18T15:09:20.282Z,13.13
2023-02-18T15:12:08.056Z,13.16
2023-02-18T15:14:37.503Z,13.21
2023-02-18T15:17:05.521Z,13.21
2023-02-18T15:19:43.358Z,13.20
2023-02-18T15:22:22.714Z,13.12
2023-02-18T15:24:51.241Z,13.16
2023-02-18T15:27:21.538Z,13.20
2023-02-18T15:29:52.791Z,13.10
2023-02-18T15:32:29.746Z,13.03
2023-02-18T15:35:01.644Z,13.02
2023-02-18T15:37:29.257Z,13.03
2023-02-18T15:39:55.741Z,13.02
2023-02-18T15:42:28.689Z,12.96
2023-02-18T15:45:21.507Z,12.93
2023-02-18T15:47:53.659Z,12.93
2023-02-18T15:50:24.076Z,12.82
2023-02-18T15:52:53.768Z,12.85
2023-02-18T15:55:38.330Z,12.89
2023-02-18T15:58:13.647Z,12.92
2023-02-18T16:00:47.237Z,12.96
2023-02-18T16:03:19.898Z,12.96
2023-02-18T16:05:46.363Z,12.92
2023-02-18T16:08:17.035Z,12.98
2023-02-18T16:10:53.088Z,12.98
2023-02-18T16:13:20.078Z,13.01
2023-02-18T16:15:49.932Z,13.01
2023-02-18T16:18:29.150Z,12.97
2023-02-18T16:21:18.341Z,12.93
2023-02-18T16:23:57.854Z,12.98
2023-02-18T16:26:40.746Z,13.01
2023-02-18T16:29:35.098Z,13.01
2023-02-18T16:32:01.807Z,12.95
2023-02-18T16:34:28.297Z,12.91
2023-02-18T16:37:13.504Z,12.88
2023-02-18T16:39:40.122Z,12.87
2023-02-18T16:42:13.173Z,12.85
2023-02-18T16:44:40.731Z,12.86
2023-02-18T16:47:08.151Z,12.88
2023-02-18T16:49:35.225Z,12.86
2023-02-18T16:52:08.100Z,12.84
2023-02-18T16:54:35.282Z,12.85
2023-02-18T16:57:01.719Z,12.84
2023-02-18T16:59:28.130Z,12.89
2023-02-18T17:01:56.010Z,12.87
2023-02-18T17:04:23.545Z,12.88
2023-02-18T17:06:50.098Z,12.79
2023-02-18T17:09:22.200Z,12.81
2023-02-18T17:11:52.063Z,12.84
2023-02-18T17:14:20.642Z,12.83
2023-02-18T17:16:48.599Z,12.82
2023-02-18T17:19:15.907Z,12.75
2023-02-18T17:21:42.788Z,12.72
2023-02-18T17:24:17.263Z,12.69
2023-02-18T17:26:44.218Z,12.67
2023-02-18T17:29:10.760Z,12.65
2023-02-18T17:31:44.448Z,12.65
2023-02-18T17:34:15.944Z,12.62
2023-02-18T17:36:45.371Z,12.58
2023-02-18T17:39:17.334Z,12.57
2023-02-18T17:41:44.112Z,12.52
2023-02-18T17:44:22.152Z,12.53
2023-02-18T17:46:49.937Z,12.53
2023-02-18T17:49:17.156Z,12.53
2023-02-18T17:51:43.578Z,12.54
2023-02-18T17:54:13.625Z,12.55
2023-02-18T17:56:40.607Z,12.57
2023-02-18T17:59:07.280Z,12.58
2023-02-18T18:01:34.157Z,12.58
2023-02-18T18:04:00.826Z,12.56
2023-02-18T18:06:27.978Z,12.57
2023-02-18T18:08:54.485Z,12.56
2023-02-18T18:11:24.369Z,12.55
2023-02-18T18:13:53.006Z,12.52
2023-02-18T18:16:20.280Z,12.51
2023-02-18T18:18:46.881Z,12.48
2023-02-18T18:21:23.201Z,12.46
2023-02-18T18:23:50.598Z,12.44
2023-02-18T18:26:17.187Z,12.44
2023-02-18T18:28:43.640Z,12.39
2023-02-18T18:31:15.712Z,12.43
2023-02-18T18:33:43.192Z,12.43
2023-02-18T18:36:10.006Z,12.42
2023-02-18T18:38:36.639Z,12.45
2023-02-18T18:41:03.194Z,12.42
2023-02-18T18:43:33.069Z,12.42
2023-02-18T18:46:00.385Z,12.42
2023-02-18T18:48:27.030Z,12.46
2023-02-18T18:50:53.861Z,12.49
2023-02-18T18:53:25.810Z,12.44
2023-02-18T18:55:55.617Z,12.48
2023-02-18T18:58:24.306Z,12.49
2023-02-18T19:00:57.523Z,12.48
2023-02-18T19:03:28.679Z,12.47
2023-02-18T19:05:56.328Z,12.44
2023-02-18T19:08:23.040Z,12.38
2023-02-18T19:10:55.020Z,12.39
2023-02-18T19:13:30.559Z,12.38
2023-02-18T19:16:12.115Z,12.41
2023-02-18T19:18:38.625Z,12.40
2023-02-18T19:21:05.288Z,12.40
2023-02-18T19:23:32.415Z,12.35
2023-02-18T19:25:59.153Z,12.36
2023-02-18T19:28:26.588Z,12.36
2023-02-18T19:30:53.142Z,12.34
2023-02-18T19:33:19.719Z,12.35
2023-02-18T19:35:46.176Z,12.42
2023-02-18T19:38:15.096Z,12.39
2023-02-18T19:40:43.194Z,12.43
2023-02-18T19:43:10.576Z,12.46
2023-02-18T19:45:42.992Z,12.47
2023-02-18T19:48:10.836Z,12.47
2023-02-18T19:50:37.388Z,12.42
2023-02-18T19:53:04.029Z,12.47
2023-02-18T19:55:30.565Z,12.51
2023-02-18T19:57:57.066Z,12.51
2023-02-18T20:00:23.615Z,12.53
2023-02-18T20:02:50.427Z,12.51
2023-02-18T20:05:17.637Z,12.50
2023-02-18T20:07:46.580Z,12.52
2023-02-18T20:10:16.268Z,12.54
2023-02-18T20:12:43.082Z,12.51
2023-02-18T20:15:10.244Z,12.48
2023-02-18T20:17:38.681Z,12.50
2023-02-18T20:20:05.736Z,12.49
2023-02-18T20:22:32.113Z,12.49
2023-02-18T20:24:59.455Z,12.48
2023-02-18T20:27:25.888Z,12.49
2023-02-18T20:29:52.533Z,12.50
2023-02-18T20:32:19.209Z,12.46
2023-02-18T20:34:45.917Z,12.43
2023-02-18T20:37:12.467Z,12.42
2023-02-18T20:39:38.829Z,12.40
2023-02-18T20:42:15.457Z,12.38
2023-02-18T20:44:43.678Z,12.33
2023-02-18T20:47:10.196Z,12.29
2023-02-18T20:49:36.964Z,12.30
2023-02-18T20:52:03.444Z,12.30
2023-02-18T20:54:29.898Z,12.29
2023-02-18T20:56:56.315Z,12.29
2023-02-18T20:59:22.711Z,12.29
2023-02-18T21:01:49.267Z,12.29
2023-02-18T21:04:19.685Z,12.29
2023-02-18T21:06:47.705Z,12.25
2023-02-18T21:09:16.175Z,12.26
2023-02-18T21:11:43.949Z,12.24
2023-02-18T21:14:11.008Z,12.28
2023-02-18T21:16:40.361Z,12.25
2023-02-18T21:19:16.857Z,12.24
2023-02-18T21:21:44.781Z,12.24
2023-02-18T21:24:11.653Z,12.25
2023-02-18T21:26:38.497Z,12.23
2023-02-18T21:29:07.858Z,12.25
2023-02-18T21:31:40.818Z,12.24
2023-02-18T21:34:11.553Z,12.26
2023-02-18T21:36:38.218Z,12.21
2023-02-18T21:39:08.958Z,12.21
2023-02-18T21:41:38.530Z,12.22
2023-02-18T21:44:06.994Z,12.25
2023-02-18T21:46:34.645Z,12.25
2023-02-18T21:49:06.894Z,12.23
2023-02-18T21:51:51.767Z,12.22
2023-02-18T21:54:20.565Z,12.24
2023-02-18T21:56:47.530Z,12.23
2023-02-18T21:59:14.224Z,12.26
2023-02-18T22:01:41.277Z,12.25
2023-02-18T22:04:07.898Z,12.23
2023-02-18T22:06:34.647Z,12.22
2023-02-18T22:09:01.876Z,12.24
2023-02-18T22:11:29.702Z,12.24
2023-02-18T22:13:56.406Z,12.26
2023-02-18T22:16:22.866Z,12.29
2023-02-18T22:18:50.305Z,12.31
2023-02-18T22:21:16.949Z,12.33
2023-02-18T22:23:43.482Z,12.35
2023-02-18T22:26:10.725Z,12.34
2023-02-18T22:28:37.346Z,12.39
2023-02-18T22:31:08.914Z,12.42
2023-02-18T22:33:35.638Z,12.42
2023-02-18T22:36:04.901Z,12.45
2023-02-18T22:38:33.134Z,12.42
2023-02-18T22:41:07.473Z,12.34
2023-02-18T22:43:34.262Z,12.34
2023-02-18T22:46:09.491Z,12.38
2023-02-18T22:48:37.311Z,12.40
2023-02-18T22:51:19.405Z,12.37
2023-02-18T22:53:46.374Z,12.37
2023-02-18T22:56:15.696Z,12.39
2023-02-18T22:58:43.279Z,12.36
2023-02-18T23:01:20.518Z,12.38
2023-02-18T23:03:47.126Z,12.39
2023-02-18T23:06:13.657Z,12.38
2023-02-18T23:08:40.518Z,12.34
2023-02-18T23:11:10.493Z,12.30
2023-02-18T23:13:37.794Z,12.27
2023-02-18T23:16:07.306Z,12.27
2023-02-18T23:18:35.358Z,12.27
2023-02-18T23:21:22.360Z,12.20
2023-02-18T23:23:51.657Z,12.24
2023-02-18T23:26:20.456Z,12.20
2023-02-18T23:28:50.094Z,12.17
2023-02-18T23:31:19.059Z,12.20
2023-02-18T23:33:52.595Z,12.24
2023-02-18T23:36:21.363Z,12.19
2023-02-18T23:38:49.214Z,12.14
2023-02-18T23:41:16.827Z,12.18
2023-02-18T23:43:44.394Z,12.18
2023-02-18T23:46:14.604Z,12.20
2023-02-18T23:48:41.438Z,12.24
2023-02-18T23:51:09.842Z,12.26
2023-02-18T23:53:37.500Z,12.29
2023-02-18T23:56:22.531Z,12.31
2023-02-18T23:58:52.377Z,12.31
